createdAt,value
2022-07-25T00:01:22.067Z,100927.44
2022-07-25T00:04:12.246Z,100915.38
2022-07-25T00:06:52.978Z,100916.47
2022-07-25T00:09:19.846Z,100928.50
2022-07-25T00:11:46.833Z,100917.88
2022-07-25T00:14:13.756Z,100922.41
2022-07-25T00:16:40.870Z,100918.94
2022-07-25T00:19:07.722Z,100919.72
2022-07-25T00:21:54.525Z,100921.06
2022-07-25T00:24:34.896Z,100918.63
2022-07-25T00:27:02.943Z,100920.06
2022-07-25T00:29:30.161Z,100911.09
2022-07-25T00:32:17.500Z,100915.97
2022-07-25T00:34:58.094Z,100921.19
2022-07-25T00:37:25.137Z,100912.25
2022-07-25T00:39:52.621Z,100906.22
2022-07-25T00:42:19.598Z,100909.00
2022-07-25T00:44:46.472Z,100913.72
2022-07-25T00:47:13.229Z,100913.31
2022-07-25T00:49:40.113Z,100905.69
2022-07-25T00:52:07.349Z,100902.72
2022-07-25T00:54:34.306Z,100908.09
2022-07-25T00:57:01.244Z,100911.41
2022-07-25T00:59:29.167Z,100918.38
2022-07-25T01:01:56.026Z,100906.41
2022-07-25T01:04:43.554Z,100908.00
2022-07-25T01:07:44.491Z,100909.84
2022-07-25T01:10:25.064Z,100914.34
2022-07-25T01:12:53.560Z,100902.72
2022-07-25T01:15:21.481Z,100904.47
2022-07-25T01:17:48.471Z,100902.81
2022-07-25T01:20:39.538Z,100904.47
2022-07-25T01:23:19.983Z,100903.81
2022-07-25T01:25:46.880Z,100898.91
2022-07-25T01:28:13.903Z,100896.06
2022-07-25T01:30:40.974Z,100902.44
2022-07-25T01:33:34.535Z,100900.84
2022-07-25T01:36:14.939Z,100896.78
2022-07-25T01:38:41.851Z,100908.09
2022-07-25T01:41:08.523Z,100908.47
2022-07-25T01:43:35.436Z,100912.41
2022-07-25T01:46:02.309Z,100901.66
2022-07-25T01:48:29.289Z,100911.03
2022-07-25T01:50:56.108Z,100906.91
2022-07-25T01:53:24.023Z,100903.00
2022-07-25T01:55:52.230Z,100851.28
2022-07-25T01:58:19.231Z,100904.56
2022-07-25T02:00:46.730Z,100901.56
2022-07-25T02:03:39.600Z,100903.19
2022-07-25T02:06:21.009Z,100892.78
2022-07-25T02:08:47.933Z,100897.72
2022-07-25T02:11:16.850Z,100894.59
2022-07-25T02:13:44.701Z,100885.44
2022-07-25T02:16:12.078Z,100885.56
2022-07-25T02:18:39.084Z,100884.44
2022-07-25T02:21:28.565Z,100884.97
2022-07-25T02:24:29.576Z,100888.25
2022-07-25T02:27:10.076Z,100893.94
2022-07-25T02:29:36.864Z,100892.66
2022-07-25T02:32:23.563Z,100884.56
2022-07-25T02:35:05.281Z,100890.66
2022-07-25T02:37:40.126Z,100891.06
2022-07-25T02:40:07.422Z,100889.72
2022-07-25T02:42:34.453Z,100890.59
2022-07-25T02:45:01.636Z,100897.81
2022-07-25T02:47:28.486Z,100891.53
2022-07-25T02:49:55.476Z,100897.91
2022-07-25T02:52:22.241Z,100889.78
2022-07-25T02:54:49.227Z,100893.25
2022-07-25T02:57:16.910Z,100889.81
2022-07-25T02:59:43.868Z,100891.69
2022-07-25T03:02:31.645Z,100888.88
2022-07-25T03:05:32.625Z,100890.06
2022-07-25T03:08:13.059Z,100889.75
2022-07-25T03:10:40.090Z,100890.81
2022-07-25T03:13:07.005Z,100891.47
2022-07-25T03:15:33.863Z,100889.84
2022-07-25T03:18:00.626Z,100890.06
2022-07-25T03:20:27.538Z,100893.69
2022-07-25T03:22:54.319Z,100902.72
2022-07-25T03:25:21.918Z,100896.63
2022-07-25T03:27:49.066Z,100898.34
2022-07-25T03:30:16.055Z,100896.63
2022-07-25T03:33:03.646Z,100898.25
2022-07-25T03:36:04.651Z,100896.47
2022-07-25T03:38:45.354Z,100891.72
2022-07-25T03:41:12.609Z,100894.97
2022-07-25T03:43:39.656Z,100894.97
2022-07-25T03:46:06.602Z,100899.41
2022-07-25T03:48:33.681Z,100898.78
2022-07-25T03:51:06.449Z,100903.28
2022-07-25T03:53:54.068Z,100894.13
2022-07-25T03:56:20.964Z,100900.06
2022-07-25T03:58:47.811Z,100899.97
2022-07-25T04:01:34.677Z,100907.59
2022-07-25T04:04:35.681Z,100903.31
2022-07-25T04:07:16.221Z,100901.03
2022-07-25T04:09:43.101Z,100909.63
2022-07-25T04:12:09.975Z,100911.03
2022-07-25T04:14:36.836Z,100911.53
2022-07-25T04:17:03.986Z,100913.06
2022-07-25T04:19:30.903Z,100923.38
2022-07-25T04:21:58.631Z,100917.94
2022-07-25T04:24:25.497Z,100914.25
2022-07-25T04:26:52.373Z,100916.38
2022-07-25T04:29:19.127Z,100919.50
2022-07-25T04:32:06.791Z,100920.00
2022-07-25T04:35:07.652Z,100921.56
2022-07-25T04:37:48.391Z,100916.31
2022-07-25T04:40:15.258Z,100916.94
2022-07-25T04:42:42.030Z,100923.50
2022-07-25T04:45:09.050Z,100925.47
2022-07-25T04:47:35.762Z,100924.78
2022-07-25T04:50:03.099Z,100924.91
2022-07-25T04:52:29.934Z,100934.63
2022-07-25T04:54:56.712Z,100925.00
2022-07-25T04:57:23.505Z,100923.16
2022-07-25T04:59:50.292Z,100933.41
2022-07-25T05:02:17.725Z,100917.03
2022-07-25T05:05:04.683Z,100925.09
2022-07-25T05:07:45.286Z,100910.09
2022-07-25T05:10:32.729Z,100919.94
2022-07-25T05:13:13.278Z,100925.59
2022-07-25T05:15:40.300Z,100920.34
2022-07-25T05:18:07.140Z,100919.00
2022-07-25T05:20:33.945Z,100919.22
2022-07-25T05:23:00.851Z,100920.97
2022-07-25T05:25:27.735Z,100925.75
2022-07-25T05:27:55.910Z,100929.44
2022-07-25T05:30:22.970Z,100940.00
2022-07-25T05:33:09.737Z,100937.66
2022-07-25T05:36:11.683Z,100940.47
2022-07-25T05:38:52.225Z,100948.28
2022-07-25T05:41:19.323Z,100936.56
2022-07-25T05:43:48.814Z,100941.28
2022-07-25T05:46:15.658Z,100947.00
2022-07-25T05:48:42.882Z,100936.69
2022-07-25T05:51:09.953Z,100939.56
2022-07-25T05:53:37.102Z,100947.81
2022-07-25T05:56:03.975Z,100938.34
2022-07-25T05:58:30.780Z,100936.72
2022-07-25T06:04:18.097Z,100942.06
2022-07-25T06:06:51.098Z,100941.84
2022-07-25T06:09:19.185Z,100941.63
2022-07-25T06:11:54.463Z,100938.72
2022-07-25T06:14:27.001Z,100943.38
2022-07-25T06:16:54.207Z,100936.88
2022-07-25T06:19:21.173Z,100939.19
2022-07-25T06:21:48.020Z,100892.81
2022-07-25T06:24:15.120Z,100933.16
2022-07-25T06:26:42.845Z,100943.00
2022-07-25T06:29:09.748Z,100938.88
2022-07-25T06:31:36.584Z,100933.88
2022-07-25T06:34:03.752Z,100934.06
2022-07-25T06:36:32.520Z,100932.81
2022-07-25T06:39:00.006Z,100926.25
2022-07-25T06:41:26.907Z,100926.53
2022-07-25T06:43:53.784Z,100923.31
2022-07-25T06:46:40.787Z,100925.88
2022-07-25T06:49:41.750Z,100922.41
2022-07-25T06:52:42.752Z,100926.00
2022-07-25T06:55:43.761Z,100923.41
2022-07-25T06:58:22.932Z,100924.94
2022-07-25T07:00:52.881Z,100918.69
2022-07-25T07:03:44.826Z,100916.78
2022-07-25T07:06:25.170Z,100914.25
2022-07-25T07:08:52.066Z,100921.44
2022-07-25T07:11:19.300Z,100929.31
2022-07-25T07:13:46.197Z,100918.41
2022-07-25T07:16:13.103Z,100925.50
2022-07-25T07:18:39.932Z,100929.72
2022-07-25T07:21:06.808Z,100922.00
2022-07-25T07:23:35.762Z,100929.22
2022-07-25T07:26:03.451Z,100928.28
2022-07-25T07:28:30.228Z,100929.13
2022-07-25T07:31:15.908Z,100925.31
2022-07-25T07:34:17.771Z,100926.09
2022-07-25T07:36:52.338Z,100919.66
2022-07-25T07:39:19.107Z,100926.66
2022-07-25T07:42:05.767Z,100924.41
2022-07-25T07:44:46.191Z,100925.19
2022-07-25T07:47:14.658Z,100926.03
2022-07-25T07:49:41.483Z,100908.03
2022-07-25T07:52:08.292Z,100917.00
2022-07-25T07:54:59.059Z,100913.44
2022-07-25T07:57:26.240Z,100914.19
2022-07-25T07:59:53.026Z,100913.13
2022-07-25T08:02:20.004Z,100919.53
2022-07-25T08:04:46.912Z,100906.16
2022-07-25T08:07:13.815Z,100914.19
2022-07-25T08:09:40.570Z,100912.13
2022-07-25T08:12:07.443Z,100915.56
2022-07-25T08:14:34.248Z,100908.38
2022-07-25T08:17:01.071Z,100916.22
2022-07-25T08:19:27.944Z,100907.50
2022-07-25T08:21:54.786Z,100912.13
2022-07-25T08:24:21.620Z,100924.69
2022-07-25T08:26:48.560Z,100914.75
2022-07-25T08:29:20.651Z,100919.75
2022-07-25T08:32:09.825Z,100918.34
2022-07-25T08:35:11.800Z,100912.34
2022-07-25T08:37:53.083Z,100909.69
2022-07-25T08:40:20.723Z,100908.53
2022-07-25T08:42:48.230Z,100904.78
2022-07-25T08:45:19.595Z,100899.84
2022-07-25T08:48:00.807Z,100900.19
2022-07-25T08:50:41.550Z,100910.75
2022-07-25T08:55:55.760Z,100902.06
2022-07-25T08:58:22.542Z,100894.31
2022-07-25T09:00:49.335Z,100900.63
2022-07-25T09:03:16.335Z,100899.53
2022-07-25T09:05:44.848Z,100898.19
2022-07-25T09:08:13.075Z,100892.63
2022-07-25T09:10:42.460Z,100894.34
2022-07-25T09:13:14.201Z,100890.06
2022-07-25T09:15:55.420Z,100884.66
2022-07-25T09:18:23.483Z,100886.88
2022-07-25T09:20:55.332Z,100880.34
2022-07-25T09:23:52.859Z,100882.31
2022-07-25T09:26:43.026Z,100876.66
2022-07-25T09:29:16.370Z,100880.81
2022-07-25T09:31:43.308Z,100875.84
2022-07-25T09:34:10.654Z,100872.00
2022-07-25T09:36:40.006Z,100873.34
2022-07-25T09:39:06.952Z,100871.25
2022-07-25T09:41:37.928Z,100870.94
2022-07-25T09:44:15.286Z,100864.72
2022-07-25T09:46:42.108Z,100876.91
2022-07-25T09:49:09.874Z,100873.34
2022-07-25T09:51:36.897Z,100862.75
2022-07-25T09:54:04.318Z,100859.19
2022-07-25T09:56:32.665Z,100855.91
2022-07-25T09:59:01.560Z,100857.53
2022-07-25T10:01:34.441Z,100846.09
2022-07-25T10:04:15.520Z,100853.81
2022-07-25T10:07:05.888Z,100851.47
2022-07-25T10:10:08.895Z,100849.19
2022-07-25T10:12:59.753Z,100845.94
2022-07-25T10:16:12.895Z,100841.78
2022-07-25T10:18:50.667Z,100844.50
2022-07-25T10:21:28.330Z,100839.84
2022-07-25T10:24:02.653Z,100838.19
2022-07-25T10:26:29.673Z,100841.94
2022-07-25T10:28:57.527Z,100838.19
2022-07-25T10:31:26.944Z,100833.63
2022-07-25T10:33:55.407Z,100822.88
2022-07-25T10:36:23.482Z,100829.78
2022-07-25T10:38:56.327Z,100822.50
2022-07-25T10:41:26.018Z,100819.97
2022-07-25T10:43:56.178Z,100822.47
2022-07-25T10:46:33.933Z,100812.34
2022-07-25T10:49:29.042Z,100810.84
2022-07-25T10:52:05.280Z,100810.44
2022-07-25T10:54:39.015Z,100808.72
2022-07-25T10:57:07.262Z,100811.50
2022-07-25T10:59:38.253Z,100805.25
2022-07-25T11:02:06.813Z,100801.06
2022-07-25T11:04:53.901Z,100798.81
2022-07-25T11:07:37.387Z,100790.63
2022-07-25T11:10:05.931Z,100788.44
2022-07-25T11:12:33.513Z,100780.63
2022-07-25T11:15:01.825Z,100781.03
2022-07-25T11:17:29.842Z,100774.63
2022-07-25T11:20:07.577Z,100769.31
2022-07-25T11:22:35.525Z,100764.72
2022-07-25T11:25:03.813Z,100758.31
2022-07-25T11:27:32.069Z,100767.94
2022-07-25T11:30:09.268Z,100758.81
2022-07-25T11:32:58.920Z,100747.97
2022-07-25T11:35:27.196Z,100747.97
2022-07-25T11:37:54.245Z,100741.00
2022-07-25T11:40:21.479Z,100750.59
2022-07-25T11:42:48.378Z,100739.59
2022-07-25T11:45:22.683Z,100736.47
2022-07-25T11:47:51.176Z,100736.81
2022-07-25T11:50:17.974Z,100726.16
2022-07-25T11:52:47.991Z,100720.09
2022-07-25T11:55:33.967Z,100725.41
2022-07-25T11:58:36.944Z,100722.13
2022-07-25T12:01:37.968Z,100702.75
2022-07-25T12:04:16.145Z,100701.97
2022-07-25T12:06:47.686Z,100696.66
2022-07-25T12:09:19.723Z,100691.84
2022-07-25T12:11:47.799Z,100676.75
2022-07-25T12:14:15.073Z,100678.53
2022-07-25T12:16:42.309Z,100672.69
2022-07-25T12:19:10.472Z,100665.38
2022-07-25T12:21:37.648Z,100653.53
2022-07-25T12:24:04.795Z,100653.41
2022-07-25T12:26:31.668Z,100652.00
2022-07-25T12:28:58.522Z,100643.50
2022-07-25T12:31:28.748Z,100647.56
2022-07-25T12:33:55.946Z,100642.41
2022-07-25T12:36:23.064Z,100633.22
2022-07-25T12:38:50.009Z,100642.38
2022-07-25T12:41:22.910Z,100643.50
2022-07-25T12:43:49.955Z,100640.69
2022-07-25T12:46:37.113Z,100635.06
2022-07-25T12:49:37.983Z,100630.00
2022-07-25T12:52:18.445Z,100623.75
2022-07-25T12:54:45.260Z,100627.44
2022-07-25T12:57:12.721Z,100620.94
2022-07-25T12:59:39.591Z,100617.63
2022-07-25T13:02:06.754Z,100609.47
2022-07-25T13:04:33.716Z,100604.66
2022-07-25T13:07:00.953Z,100594.56
2022-07-25T13:09:28.511Z,100589.78
2022-07-25T13:11:55.548Z,100581.59
2022-07-25T13:14:22.481Z,100583.59
2022-07-25T13:16:49.448Z,100580.13
2022-07-25T13:19:17.050Z,100568.41
2022-07-25T13:21:44.197Z,100573.78
2022-07-25T13:24:11.349Z,100569.84
2022-07-25T13:26:38.635Z,100575.44
2022-07-25T13:29:11.535Z,100567.88
2022-07-25T13:32:00.162Z,100576.34
2022-07-25T13:35:01.022Z,100578.31
2022-07-25T13:37:41.422Z,100581.59
2022-07-25T13:40:09.104Z,100564.03
2022-07-25T13:42:35.925Z,100569.81
2022-07-25T13:45:02.904Z,100567.75
2022-07-25T13:47:30.661Z,100569.13
2022-07-25T13:49:57.557Z,100560.91
2022-07-25T13:52:24.539Z,100552.28
2022-07-25T13:54:51.318Z,100540.81
2022-07-25T13:57:19.514Z,100543.91
2022-07-25T14:00:07.085Z,100546.13
2022-07-25T14:03:01.911Z,100552.63
2022-07-25T14:05:28.800Z,100550.38
2022-07-25T14:07:55.848Z,100553.38
2022-07-25T14:10:22.658Z,100545.41
2022-07-25T14:12:50.299Z,100542.94
2022-07-25T14:15:17.668Z,100535.69
2022-07-25T14:17:44.602Z,100534.47
2022-07-25T14:20:12.086Z,100521.34
2022-07-25T14:22:39.765Z,100515.72
2022-07-25T14:25:07.079Z,100516.81
2022-07-25T14:27:54.066Z,100508.13
2022-07-25T14:30:34.638Z,100497.38
2022-07-25T14:33:22.097Z,100486.19
2022-07-25T14:36:02.576Z,100485.03
2022-07-25T14:38:29.513Z,100487.19
2022-07-25T14:40:56.361Z,100482.41
2022-07-25T14:43:23.303Z,100474.38
2022-07-25T14:45:50.156Z,100474.09
2022-07-25T14:48:17.098Z,100479.88
2022-07-25T14:51:04.102Z,100476.53
2022-07-25T14:54:05.108Z,100480.13
2022-07-25T14:56:57.576Z,100477.22
2022-07-25T14:59:24.994Z,100472.91
2022-07-25T15:01:51.838Z,100474.91
2022-07-25T15:04:21.904Z,100465.72
2022-07-25T15:06:49.286Z,100466.94
2022-07-25T15:09:16.421Z,100461.09
2022-07-25T15:11:43.227Z,100454.34
2022-07-25T15:14:10.149Z,100459.25
2022-07-25T15:16:37.907Z,100453.47
2022-07-25T15:19:16.319Z,100447.16
2022-07-25T15:21:44.394Z,100454.56
2022-07-25T15:24:11.472Z,100448.16
2022-07-25T15:26:58.085Z,100441.78
2022-07-25T15:29:38.493Z,100435.25
2022-07-25T15:32:05.759Z,100434.44
2022-07-25T15:34:33.429Z,100426.66
2022-07-25T15:37:00.334Z,100425.72
2022-07-25T15:39:27.198Z,100423.25
2022-07-25T15:42:14.182Z,100413.81
2022-07-25T15:45:15.298Z,100408.09
2022-07-25T15:48:03.120Z,100410.25
2022-07-25T15:50:47.916Z,100399.41
2022-07-25T15:53:15.386Z,100393.50
2022-07-25T15:55:42.367Z,100392.09
2022-07-25T15:58:10.207Z,100385.31
2022-07-25T16:00:38.624Z,100384.47
2022-07-25T16:03:06.428Z,100382.50
2022-07-25T16:05:33.290Z,100379.53
2022-07-25T16:08:02.996Z,100376.28
2022-07-25T16:10:30.779Z,100364.47
2022-07-25T16:12:57.676Z,100364.22
2022-07-25T16:15:25.260Z,100356.88
2022-07-25T16:17:53.765Z,100364.56
2022-07-25T16:20:20.578Z,100364.59
2022-07-25T16:22:49.080Z,100360.63
2022-07-25T16:25:16.038Z,100354.69
2022-07-25T16:27:42.957Z,100338.72
2022-07-25T16:30:10.032Z,100346.53
2022-07-25T16:32:57.156Z,100343.38
2022-07-25T16:35:58.174Z,100336.69
2022-07-25T16:38:53.404Z,100331.22
2022-07-25T16:41:20.287Z,100327.28
2022-07-25T16:43:47.071Z,100327.22
2022-07-25T16:46:14.088Z,100333.63
2022-07-25T16:48:41.419Z,100323.88
2022-07-25T16:51:08.407Z,100334.78
2022-07-25T16:53:36.680Z,100320.94
2022-07-25T16:56:24.257Z,100316.84
2022-07-25T16:59:05.786Z,100317.28
2022-07-25T17:01:33.444Z,100317.66
2022-07-25T17:04:00.909Z,100312.47
2022-07-25T17:06:28.278Z,100314.22
2022-07-25T17:08:55.554Z,100307.44
2022-07-25T17:11:32.240Z,100305.25
2022-07-25T17:14:00.655Z,100305.16
2022-07-25T17:16:27.725Z,100292.56
2022-07-25T17:18:54.550Z,100299.28
2022-07-25T17:21:22.072Z,100292.19
2022-07-25T17:24:09.186Z,100292.69
2022-07-25T17:27:10.210Z,100285.41
2022-07-25T17:29:51.335Z,100279.09
2022-07-25T17:32:18.131Z,100270.56
2022-07-25T17:34:45.378Z,100259.34
2022-07-25T17:37:12.368Z,100260.72
2022-07-25T17:39:39.308Z,100253.50
2022-07-25T17:42:07.416Z,100252.69
2022-07-25T17:44:34.747Z,100260.66
2022-07-25T17:47:22.213Z,100257.75
2022-07-25T17:50:28.850Z,100266.75
2022-07-25T17:53:20.600Z,100283.25
2022-07-25T17:55:47.621Z,100292.66
2022-07-25T17:58:14.464Z,100297.22
2022-07-25T18:00:41.276Z,100323.41
2022-07-25T18:03:08.292Z,100328.06
2022-07-25T18:05:35.120Z,100340.00
2022-07-25T18:08:03.147Z,100343.88
2022-07-25T18:10:30.654Z,100342.41
2022-07-25T18:13:00.846Z,100343.94
2022-07-25T18:15:42.281Z,100344.88
2022-07-25T18:18:43.274Z,100350.25
2022-07-25T18:21:28.228Z,100347.66
2022-07-25T18:23:55.261Z,100342.91
2022-07-25T18:26:22.233Z,100350.69
2022-07-25T18:28:49.199Z,100358.72
2022-07-25T18:31:16.172Z,100355.28
2022-07-25T18:33:43.133Z,100341.38
2022-07-25T18:36:10.024Z,100339.53
2022-07-25T18:38:37.357Z,100337.16
2022-07-25T18:41:29.072Z,100334.28
2022-07-25T18:43:53.958Z,100347.22
2022-07-25T18:46:21.383Z,100347.47
2022-07-25T18:48:48.332Z,100351.59
2022-07-25T18:51:15.264Z,100363.97
2022-07-25T18:54:02.263Z,100357.47
2022-07-25T18:57:03.286Z,100380.97
2022-07-25T18:59:43.774Z,100388.25
2022-07-25T19:02:10.700Z,100390.63
2022-07-25T19:04:37.751Z,100396.06
2022-07-25T19:07:25.278Z,100411.63
2022-07-25T19:10:06.169Z,100414.97
2022-07-25T19:12:33.085Z,100411.22
2022-07-25T19:14:59.938Z,100412.81
2022-07-25T19:17:47.260Z,100424.50
2022-07-25T19:20:27.908Z,100400.13
2022-07-25T19:22:55.845Z,100409.22
2022-07-25T19:25:23.020Z,100461.13
2022-07-25T19:28:10.294Z,100468.31
2022-07-25T19:30:50.880Z,100485.75
2022-07-25T19:33:17.958Z,100489.31
2022-07-25T19:35:44.790Z,100514.50
2022-07-25T19:38:32.281Z,100519.34
2022-07-25T19:41:33.276Z,100543.19
2022-07-25T19:44:13.830Z,100562.03
2022-07-25T19:46:40.786Z,100598.28
2022-07-25T19:49:07.998Z,100597.03
2022-07-25T19:51:35.816Z,100589.91
2022-07-25T19:54:23.351Z,100606.78
2022-07-25T19:57:03.846Z,100636.69
2022-07-25T19:59:30.700Z,100662.91
2022-07-25T20:01:57.738Z,100713.47
2022-07-25T20:04:24.731Z,100720.44
2022-07-25T20:06:51.581Z,100725.22
2022-07-25T20:09:18.334Z,100737.03
2022-07-25T20:11:45.458Z,100742.16
2022-07-25T20:14:12.456Z,100768.75
2022-07-25T20:16:59.424Z,100791.34
2022-07-25T20:19:53.424Z,100791.41
2022-07-25T20:22:37.545Z,100779.81
2022-07-25T20:25:05.587Z,100762.97
2022-07-25T20:27:32.675Z,100777.38
2022-07-25T20:30:01.339Z,100763.56
2022-07-25T20:32:28.140Z,100752.97
2022-07-25T20:34:54.928Z,100752.00
2022-07-25T20:37:22.224Z,100760.47
2022-07-25T20:40:09.398Z,100762.91
2022-07-25T20:42:49.854Z,100772.63
2022-07-25T20:45:16.901Z,100774.13
2022-07-25T20:48:04.433Z,100786.69
2022-07-25T20:50:44.774Z,100775.06
2022-07-25T20:53:12.002Z,100751.94
2022-07-25T20:55:38.773Z,100741.72
2022-07-25T20:58:05.753Z,100749.53
2022-07-25T21:00:32.629Z,100736.88
2022-07-25T21:02:59.719Z,100720.09
2022-07-25T21:05:26.901Z,100703.09
2022-07-25T21:07:53.916Z,100678.72
2022-07-25T21:10:20.734Z,100664.25
2022-07-25T21:12:47.519Z,100644.38
2022-07-25T21:15:14.999Z,100631.88
2022-07-25T21:17:41.906Z,100619.91
2022-07-25T21:20:29.326Z,100614.72
2022-07-25T21:23:30.423Z,100624.88
2022-07-25T21:26:10.857Z,100617.13
2022-07-25T21:28:37.757Z,100612.34
2022-07-25T21:31:04.808Z,100608.97
2022-07-25T21:33:31.542Z,100602.72
2022-07-25T21:35:58.462Z,100574.88
2022-07-25T21:38:26.931Z,100567.06
2022-07-25T21:40:55.925Z,100550.88
2022-07-25T21:43:22.707Z,100553.44
2022-07-25T21:45:49.912Z,100549.41
2022-07-25T21:48:16.862Z,100548.72
2022-07-25T21:50:50.358Z,100546.56
2022-07-25T21:53:17.481Z,100554.34
2022-07-25T21:56:04.356Z,100537.03
2022-07-25T21:58:46.486Z,100509.22
2022-07-25T22:01:13.548Z,100477.31
2022-07-25T22:03:40.683Z,100446.03
2022-07-25T22:06:07.884Z,100432.09
2022-07-25T22:08:34.722Z,100447.16
2022-07-25T22:11:16.005Z,100441.00
2022-07-25T22:13:48.903Z,100432.06
2022-07-25T22:16:16.652Z,100430.81
2022-07-25T22:18:43.591Z,100461.28
2022-07-25T22:21:11.036Z,100476.28
2022-07-25T22:23:37.880Z,100493.28
2022-07-25T22:26:04.730Z,100499.03
2022-07-25T22:28:51.394Z,100520.88
2022-07-25T22:31:52.561Z,100549.03
2022-07-25T22:34:32.949Z,100584.72
2022-07-25T22:36:59.801Z,100580.44
2022-07-25T22:39:26.815Z,100559.28
2022-07-25T22:41:53.982Z,100564.25
2022-07-25T22:44:20.822Z,100592.06
2022-07-25T22:46:47.744Z,100568.06
2022-07-25T22:49:14.657Z,100574.59
2022-07-25T22:51:41.623Z,100584.69
2022-07-25T22:54:08.443Z,100587.44
2022-07-25T22:56:35.520Z,100579.03
2022-07-25T22:59:02.458Z,100579.28
2022-07-25T23:01:49.509Z,100583.50
2022-07-25T23:04:29.995Z,100594.28
2022-07-25T23:06:57.077Z,100593.16
2022-07-25T23:09:24.140Z,100596.03
2022-07-25T23:12:03.255Z,100584.38
2022-07-25T23:14:30.269Z,100588.28
2022-07-25T23:17:15.924Z,100585.31
2022-07-25T23:19:45.733Z,100589.56
2022-07-25T23:22:12.674Z,100579.53
2022-07-25T23:24:39.666Z,100583.16
2022-07-25T23:27:07.109Z,100573.63
2022-07-25T23:29:34.136Z,100571.72
2022-07-25T23:32:01.222Z,100570.69
2022-07-25T23:34:28.251Z,100570.41
2022-07-25T23:37:15.490Z,100574.31
2022-07-25T23:40:16.443Z,100572.75
2022-07-25T23:42:57.063Z,100563.00
2022-07-25T23:45:26.363Z,100560.31
2022-07-25T23:47:55.110Z,100564.66
2022-07-25T23:50:23.160Z,100550.16
2022-07-25T23:52:50.170Z,100558.69
2022-07-25T23:55:17.196Z,100559.50
2022-07-25T23:57:44.158Z,100549.53
